CheckWX is a tool to help pilots better visualize weather data.  It is not intended as a substitute for an official pre-flight weather briefing.

12:29:52 UTC

CYYG METAR
Charlottetown Airport
Charlottetown, Canada
Current

30 mins ago

CYYG 171200Z 30008KT 15SM BKN032 M03/M06 A3041 RMK SC5 SLP303
Observed
Nov-17 @ 12:00 UTC
Wind
  • 300° at 8 KTS
Visibility
15 SM
Flight Rules
VFR
Cloud Levels
  • Broken at 3,200' AGL
Temperature
-3°C / 27°F
Dewpoint
-6°C / 21°F
Humidity
80%
Altimeter
30.41" Hg
Pressure
1029.82 hPa
Previous

1 hour ago

CYYG 171100Z 28008KT 15SM BKN030 M04/M07 A3039 RMK SC6 SLP297
Observed
Nov-17 @ 11:00 UTC
Wind
  • 280° at 8 KTS
Visibility
15 SM
Flight Rules
MVFR
Cloud Levels
  • Broken at 3,000' AGL
Temperature
-4°C / 25°F
Dewpoint
-7°C / 19°F
Humidity
80%
Altimeter
30.39" Hg
Pressure
1029.12 hPa
Previous

2 hours ago

CYYG 171042Z 27008KT 15SM BKN031 M04/M07 A3039 RMK SC6 SLP296
Observed
Nov-17 @ 10:42 UTC
Wind
  • 270° at 8 KTS
Visibility
15 SM
Flight Rules
VFR
Cloud Levels
  • Broken at 3,100' AGL
Temperature
-4°C / 25°F
Dewpoint
-7°C / 19°F
Humidity
80%
Altimeter
30.39" Hg
Pressure
1029.12 hPa